createdAt,value
2023-01-18T00:00:21.100Z,13.90
2023-01-18T00:02:49.281Z,14.00
2023-01-18T00:05:17.329Z,13.00
2023-01-18T00:07:45.224Z,13.70
2023-01-18T00:10:12.914Z,13.20
2023-01-18T00:12:40.641Z,11.93
2023-01-18T00:15:11.461Z,13.37
2023-01-18T00:17:47.659Z,15.67
2023-01-18T00:20:16.021Z,12.83
2023-01-18T00:22:43.959Z,13.97
2023-01-18T00:25:12.114Z,12.93
2023-01-18T00:27:40.423Z,14.03
2023-01-18T00:30:11.016Z,13.50
2023-01-18T00:32:38.962Z,11.37
2023-01-18T00:35:08.210Z,12.70
2023-01-18T00:37:36.299Z,12.20
2023-01-18T00:40:05.903Z,12.43
2023-01-18T00:42:51.510Z,12.50
2023-01-18T00:45:20.830Z,11.90
2023-01-18T00:47:48.541Z,12.73
2023-01-18T00:50:16.501Z,12.13
2023-01-18T00:52:46.270Z,12.10
2023-01-18T00:55:15.011Z,11.40
2023-01-18T00:57:43.525Z,11.80
2023-01-18T01:00:15.259Z,11.60
2023-01-18T01:02:44.488Z,12.07
2023-01-18T01:05:35.727Z,12.50
2023-01-18T01:08:04.705Z,10.80
2023-01-18T01:10:32.514Z,10.40
2023-01-18T01:13:17.863Z,10.53
2023-01-18T01:16:03.772Z,10.80
2023-01-18T01:18:50.620Z,11.30
2023-01-18T01:21:36.302Z,11.97
2023-01-18T01:24:21.510Z,10.57
2023-01-18T01:26:49.253Z,9.93
2023-01-18T01:29:17.123Z,10.70
2023-01-18T01:31:44.855Z,11.00
2023-01-18T01:34:14.226Z,11.10
2023-01-18T01:36:41.989Z,11.33
2023-01-18T01:39:11.050Z,11.67
2023-01-18T01:41:39.197Z,11.67
2023-01-18T01:44:40.266Z,10.90
2023-01-18T01:47:14.319Z,12.17
2023-01-18T01:49:47.367Z,11.93
2023-01-18T01:52:17.893Z,11.87
2023-01-18T01:54:49.527Z,11.10
2023-01-18T01:57:21.652Z,11.07
2023-01-18T01:59:55.526Z,10.77
2023-01-18T02:02:23.278Z,10.53
2023-01-18T02:04:53.801Z,10.40
2023-01-18T02:07:22.327Z,10.10
2023-01-18T02:09:51.383Z,9.97
2023-01-18T02:12:19.431Z,8.97
2023-01-18T02:14:47.567Z,8.63
2023-01-18T02:17:28.317Z,8.73
2023-01-18T02:20:47.273Z,8.63
2023-01-18T02:23:44.340Z,8.43
2023-01-18T02:26:43.476Z,8.67
2023-01-18T02:29:17.428Z,8.00
2023-01-18T02:32:00.538Z,9.07
2023-01-18T02:34:38.687Z,9.33
2023-01-18T02:37:12.933Z,8.47
2023-01-18T02:39:52.605Z,9.07
2023-01-18T02:42:40.128Z,8.53
2023-01-18T02:45:35.889Z,8.10
2023-01-18T02:48:04.877Z,8.20
2023-01-18T02:50:32.856Z,8.60
2023-01-18T02:53:00.696Z,8.67
2023-01-18T02:55:37.862Z,8.03
2023-01-18T02:58:10.431Z,7.73
2023-01-18T03:00:45.464Z,7.97
2023-01-18T03:03:14.057Z,7.73
2023-01-18T03:05:44.607Z,7.53
2023-01-18T03:08:18.012Z,7.33
2023-01-18T03:10:56.553Z,7.47
2023-01-18T03:13:30.305Z,7.60
2023-01-18T03:16:07.859Z,7.50
2023-01-18T03:19:00.042Z,7.80
2023-01-18T03:21:35.660Z,7.50
2023-01-18T03:24:06.821Z,7.90
2023-01-18T03:26:39.432Z,7.03
2023-01-18T03:29:25.846Z,7.17
2023-01-18T03:32:16.841Z,6.70
2023-01-18T03:34:52.628Z,7.50
2023-01-18T03:37:28.304Z,6.77
2023-01-18T03:39:58.917Z,6.67
2023-01-18T03:42:32.017Z,6.73
2023-01-18T03:45:07.717Z,6.53
2023-01-18T03:47:37.378Z,6.60
2023-01-18T03:50:05.833Z,6.33
2023-01-18T03:52:41.487Z,7.67
2023-01-18T03:55:16.646Z,7.07
2023-01-18T03:57:47.904Z,7.57
2023-01-18T04:00:16.401Z,7.30
2023-01-18T04:02:47.877Z,7.70
2023-01-18T04:05:16.477Z,8.03
2023-01-18T04:07:44.835Z,7.43
2023-01-18T04:10:13.023Z,7.77
2023-01-18T04:12:40.733Z,8.10
2023-01-18T04:15:09.433Z,8.00
2023-01-18T04:17:37.168Z,8.20
2023-01-18T04:20:07.489Z,8.17
2023-01-18T04:22:35.333Z,7.80
2023-01-18T04:25:03.061Z,8.43
2023-01-18T04:27:30.780Z,8.13
2023-01-18T04:29:58.554Z,8.13
2023-01-18T04:32:26.292Z,8.93
2023-01-18T04:34:54.434Z,8.73
2023-01-18T04:37:31.159Z,8.30
2023-01-18T04:39:59.032Z,8.30
2023-01-18T04:42:26.824Z,8.50
2023-01-18T04:44:54.557Z,8.50
2023-01-18T04:47:22.266Z,8.33
2023-01-18T04:49:49.937Z,7.73
2023-01-18T04:52:19.137Z,8.47
2023-01-18T04:54:48.349Z,8.20
2023-01-18T04:57:16.099Z,9.15
2023-01-18T04:59:46.063Z,7.80
2023-01-18T05:02:15.264Z,8.60
2023-01-18T05:04:43.553Z,8.17
2023-01-18T05:07:11.722Z,7.47
2023-01-18T05:09:39.459Z,7.97
2023-01-18T05:12:08.897Z,7.87
2023-01-18T05:14:36.600Z,8.77
2023-01-18T05:17:04.362Z,8.43
2023-01-18T05:19:32.100Z,7.97
2023-01-18T05:21:59.824Z,7.33
2023-01-18T05:24:29.758Z,7.13
2023-01-18T05:26:57.805Z,7.00
2023-01-18T05:29:26.859Z,6.57
2023-01-18T05:31:54.578Z,7.97
2023-01-18T05:34:22.367Z,7.03
2023-01-18T05:36:50.110Z,6.70
2023-01-18T05:39:17.815Z,7.23
2023-01-18T05:41:45.533Z,6.17
2023-01-18T05:44:13.295Z,7.23
2023-01-18T05:46:42.436Z,7.53
2023-01-18T05:49:10.119Z,7.43
2023-01-18T05:51:37.857Z,7.43
2023-01-18T05:54:05.726Z,8.03
2023-01-18T05:56:33.885Z,8.20
2023-01-18T05:59:01.664Z,7.27
2023-01-18T06:01:29.506Z,7.10
2023-01-18T06:03:58.676Z,7.27
2023-01-18T06:06:26.548Z,8.17
2023-01-18T06:08:54.240Z,7.90
2023-01-18T06:11:21.923Z,8.07
2023-01-18T06:13:49.644Z,7.30
2023-01-18T06:16:17.446Z,7.73
2023-01-18T06:18:45.164Z,8.07
2023-01-18T06:21:15.242Z,7.10
2023-01-18T06:23:42.993Z,7.43
2023-01-18T06:26:10.760Z,7.57
2023-01-18T06:28:38.519Z,6.77
2023-01-18T06:31:08.282Z,6.50
2023-01-18T06:33:36.568Z,6.40
2023-01-18T06:36:05.792Z,11.97
2023-01-18T06:38:34.860Z,7.90
2023-01-18T06:41:02.546Z,7.20
2023-01-18T06:43:30.372Z,7.10
2023-01-18T06:45:58.452Z,7.43
2023-01-18T06:48:28.569Z,8.00
2023-01-18T06:50:58.245Z,7.80
2023-01-18T06:53:26.469Z,8.07
2023-01-18T06:55:57.770Z,7.50
2023-01-18T06:58:26.794Z,7.47
2023-01-18T07:00:56.819Z,8.77
2023-01-18T07:03:24.849Z,7.90
2023-01-18T07:05:53.985Z,7.50
2023-01-18T07:08:21.967Z,7.90
2023-01-18T07:10:49.894Z,7.60
2023-01-18T07:13:19.051Z,6.77
2023-01-18T07:15:46.774Z,7.40
2023-01-18T07:18:15.523Z,8.23
2023-01-18T07:20:43.206Z,9.77
2023-01-18T07:23:11.012Z,10.10
2023-01-18T07:25:38.703Z,9.43
2023-01-18T07:28:06.705Z,9.20
2023-01-18T07:30:36.884Z,8.77
2023-01-18T07:33:04.925Z,7.87
2023-01-18T07:35:32.640Z,8.10
2023-01-18T07:38:00.332Z,7.57
2023-01-18T07:40:28.122Z,7.47
2023-01-18T07:42:58.880Z,7.33
2023-01-18T07:45:26.747Z,7.53
2023-01-18T07:47:55.855Z,7.30
2023-01-18T07:50:23.554Z,8.30
2023-01-18T07:52:51.259Z,7.93
2023-01-18T07:55:19.733Z,7.50
2023-01-18T07:57:47.715Z,7.33
2023-01-18T08:00:17.232Z,7.07
2023-01-18T08:02:44.998Z,7.43
2023-01-18T08:05:14.157Z,6.30
2023-01-18T08:07:41.874Z,12.67
2023-01-18T08:10:10.471Z,7.43
2023-01-18T08:12:38.232Z,7.77
2023-01-18T08:15:07.142Z,7.07
2023-01-18T08:17:35.682Z,6.53
2023-01-18T08:20:05.468Z,6.70
2023-01-18T08:22:34.516Z,6.87
2023-01-18T08:25:02.250Z,7.77
2023-01-18T08:27:30.024Z,13.50
2023-01-18T08:29:57.748Z,13.53
2023-01-18T08:32:25.539Z,11.63
2023-01-18T08:34:53.224Z,9.40
2023-01-18T08:37:23.743Z,9.43
2023-01-18T08:39:52.824Z,9.03
2023-01-18T08:42:20.588Z,8.63
2023-01-18T08:44:49.124Z,7.33
2023-01-18T08:47:18.051Z,7.43
2023-01-18T08:49:46.649Z,7.67
2023-01-18T08:52:15.319Z,7.70
2023-01-18T08:54:43.141Z,7.70
2023-01-18T08:57:12.277Z,7.73
2023-01-18T08:59:40.012Z,6.83
2023-01-18T09:02:09.684Z,6.80
2023-01-18T09:04:37.426Z,6.53
2023-01-18T09:07:05.259Z,6.93
2023-01-18T09:09:33.032Z,6.80
2023-01-18T09:12:00.712Z,6.10
2023-01-18T09:14:29.772Z,6.47
2023-01-18T09:16:57.461Z,6.00
2023-01-18T09:19:25.246Z,6.07
2023-01-18T09:21:53.049Z,5.93
2023-01-18T09:24:20.783Z,4.90
2023-01-18T09:26:51.566Z,5.33
2023-01-18T09:29:19.327Z,4.60
2023-01-18T09:31:49.185Z,5.50
2023-01-18T09:34:19.963Z,4.80
2023-01-18T09:36:51.334Z,5.73
2023-01-18T09:39:19.806Z,5.27
2023-01-18T09:41:53.387Z,5.33
2023-01-18T09:44:28.732Z,5.33
2023-01-18T09:47:00.259Z,5.27
2023-01-18T09:49:36.449Z,5.60
2023-01-18T09:52:19.425Z,5.23
2023-01-18T09:54:56.905Z,5.50
2023-01-18T09:57:38.441Z,5.37
2023-01-18T10:00:19.700Z,5.20
2023-01-18T10:02:51.741Z,5.53
2023-01-18T10:05:22.777Z,5.30
2023-01-18T10:08:02.415Z,5.67
2023-01-18T10:10:35.198Z,5.33
2023-01-18T10:13:15.849Z,5.83
2023-01-18T10:15:44.667Z,5.83
2023-01-18T10:18:17.026Z,5.43
2023-01-18T10:20:48.725Z,5.50
2023-01-18T10:23:24.669Z,5.33
2023-01-18T10:25:56.247Z,6.23
2023-01-18T10:28:35.632Z,5.97
2023-01-18T10:31:16.260Z,5.87
2023-01-18T10:33:47.408Z,5.97
2023-01-18T10:36:19.604Z,6.27
2023-01-18T10:38:48.444Z,7.00
2023-01-18T10:41:20.776Z,7.10
2023-01-18T10:43:48.640Z,6.63
2023-01-18T10:46:19.766Z,6.33
2023-01-18T10:48:50.383Z,6.47
2023-01-18T10:51:31.685Z,6.93
2023-01-18T10:53:59.970Z,6.53
2023-01-18T10:56:29.373Z,6.93
2023-01-18T10:59:00.071Z,7.47
2023-01-18T11:01:30.049Z,6.77
2023-01-18T11:04:06.145Z,6.53
2023-01-18T11:06:46.076Z,6.30
2023-01-18T11:09:41.334Z,6.47
2023-01-18T11:12:37.363Z,6.33
2023-01-18T11:15:25.477Z,6.47
2023-01-18T11:18:16.255Z,6.33
2023-01-18T11:20:51.237Z,6.07
2023-01-18T11:23:23.112Z,7.07
2023-01-18T11:25:55.990Z,5.97
2023-01-18T11:28:28.334Z,6.47
2023-01-18T11:30:59.356Z,6.67
2023-01-18T11:33:29.405Z,7.20
2023-01-18T11:36:00.831Z,6.93
2023-01-18T11:38:31.668Z,6.73
2023-01-18T11:41:05.263Z,7.00
2023-01-18T11:43:36.515Z,7.43
2023-01-18T11:46:14.841Z,7.30
2023-01-18T11:48:48.696Z,7.23
2023-01-18T11:51:25.035Z,7.27
2023-01-18T11:53:59.501Z,7.13
2023-01-18T11:56:33.111Z,7.60
2023-01-18T11:59:03.394Z,7.60
2023-01-18T12:01:47.640Z,6.87
2023-01-18T12:04:23.116Z,6.70
2023-01-18T12:07:03.235Z,6.87
2023-01-18T12:09:39.038Z,6.50
2023-01-18T12:12:24.500Z,6.63
2023-01-18T12:15:05.708Z,7.10
2023-01-18T12:17:49.483Z,6.60
2023-01-18T12:20:25.874Z,6.73
2023-01-18T12:23:23.500Z,6.87
2023-01-18T12:26:13.853Z,7.17
2023-01-18T12:29:08.458Z,6.47
2023-01-18T12:31:50.996Z,6.73
2023-01-18T12:34:23.560Z,6.83
2023-01-18T12:37:13.465Z,7.50
2023-01-18T12:39:54.646Z,8.20
2023-01-18T12:42:35.017Z,7.00
2023-01-18T12:45:14.616Z,6.27
2023-01-18T12:47:47.885Z,6.93
2023-01-18T12:50:23.265Z,6.87
2023-01-18T12:52:54.635Z,6.40
2023-01-18T12:55:26.155Z,6.70
2023-01-18T12:57:58.796Z,6.93
2023-01-18T13:00:34.237Z,6.70
2023-01-18T13:03:06.235Z,7.33
2023-01-18T13:05:43.895Z,6.83
2023-01-18T13:08:16.029Z,7.10
2023-01-18T13:10:45.696Z,7.30
2023-01-18T13:13:18.722Z,6.90
2023-01-18T13:15:54.148Z,8.17
2023-01-18T13:18:28.532Z,7.87
2023-01-18T13:21:07.973Z,8.30
2023-01-18T13:23:43.594Z,8.53
2023-01-18T13:26:23.224Z,9.53
2023-01-18T13:29:14.590Z,9.27
2023-01-18T13:31:42.444Z,10.67
2023-01-18T13:34:28.581Z,9.80
2023-01-18T13:37:12.912Z,9.83
2023-01-18T13:39:47.968Z,9.27
2023-01-18T13:42:35.000Z,9.10
2023-01-18T13:45:19.291Z,9.40
2023-01-18T13:47:57.130Z,9.60
2023-01-18T13:50:40.868Z,9.60
2023-01-18T13:53:27.029Z,9.83
2023-01-18T13:56:23.885Z,9.63
2023-01-18T13:59:01.552Z,9.00
2023-01-18T14:01:33.521Z,8.83
2023-01-18T14:04:22.753Z,8.83
2023-01-18T14:06:52.135Z,8.80
2023-01-18T14:09:33.716Z,9.90
2023-01-18T14:12:01.672Z,9.73
2023-01-18T14:14:32.657Z,9.60
2023-01-18T14:17:06.267Z,9.63
2023-01-18T14:19:57.438Z,10.13
2023-01-18T14:22:40.031Z,10.33
2023-01-18T14:25:32.107Z,9.57
2023-01-18T14:28:07.122Z,10.30
2023-01-18T14:30:38.327Z,10.77
2023-01-18T14:33:10.201Z,10.07
2023-01-18T14:35:38.927Z,10.33
2023-01-18T14:38:17.363Z,12.80
2023-01-18T14:40:47.629Z,13.00
2023-01-18T14:43:19.522Z,10.67
2023-01-18T14:45:56.477Z,10.83
2023-01-18T14:48:25.584Z,14.93
2023-01-18T14:50:56.155Z,13.73
2023-01-18T14:53:26.703Z,12.07
2023-01-18T14:56:06.424Z,12.17
2023-01-18T14:58:37.393Z,12.87
2023-01-18T15:01:09.427Z,11.63
2023-01-18T15:03:37.716Z,12.83
2023-01-18T15:06:13.549Z,12.07
2023-01-18T15:08:43.090Z,16.90
2023-01-18T15:11:12.066Z,14.90
2023-01-18T15:13:47.515Z,15.77
2023-01-18T15:16:20.629Z,12.77
2023-01-18T15:18:49.710Z,12.13
2023-01-18T15:21:22.156Z,12.37
2023-01-18T15:23:52.347Z,12.43
2023-01-18T15:26:34.633Z,12.40
2023-01-18T15:29:08.645Z,11.87
2023-01-18T15:31:53.320Z,11.93
2023-01-18T15:34:28.179Z,10.03
2023-01-18T15:36:57.608Z,10.00
2023-01-18T15:39:26.008Z,9.80
2023-01-18T15:41:57.355Z,10.03
2023-01-18T15:44:36.587Z,10.03
2023-01-18T15:47:16.578Z,9.77
2023-01-18T15:49:46.444Z,9.47
2023-01-18T15:52:15.069Z,9.27
2023-01-18T15:54:43.288Z,9.10
2023-01-18T15:57:13.723Z,9.43
2023-01-18T15:59:43.215Z,8.53
2023-01-18T16:02:21.426Z,9.47
2023-01-18T16:04:49.385Z,9.67
2023-01-18T16:07:37.990Z,9.60
2023-01-18T16:10:20.653Z,9.30
2023-01-18T16:12:48.447Z,9.43
2023-01-18T16:15:27.007Z,8.53
2023-01-18T16:18:04.331Z,8.37
2023-01-18T16:20:34.291Z,9.00
2023-01-18T16:23:08.487Z,8.47
2023-01-18T16:25:37.659Z,9.73
2023-01-18T16:28:06.311Z,10.87
2023-01-18T16:30:38.518Z,10.10
2023-01-18T16:33:13.072Z,9.80
2023-01-18T16:35:41.957Z,9.47
2023-01-18T16:38:12.363Z,9.13
2023-01-18T16:40:42.846Z,9.63
2023-01-18T16:43:23.520Z,9.13
2023-01-18T16:45:52.978Z,8.67
2023-01-18T16:48:24.152Z,8.80
2023-01-18T16:50:52.682Z,9.03
2023-01-18T16:53:20.692Z,8.80
2023-01-18T16:55:48.788Z,7.67
2023-01-18T16:58:18.299Z,7.00
2023-01-18T17:00:52.785Z,6.13
2023-01-18T17:03:21.897Z,7.47
2023-01-18T17:05:49.591Z,10.13
2023-01-18T17:08:18.384Z,6.97
2023-01-18T17:10:47.781Z,7.50
2023-01-18T17:13:15.752Z,3.40
2023-01-18T17:15:45.459Z,6.93
2023-01-18T17:18:16.023Z,7.23
2023-01-18T17:20:45.626Z,6.13
2023-01-18T17:23:13.646Z,6.87
2023-01-18T17:25:41.478Z,5.53
2023-01-18T17:28:09.735Z,6.10
2023-01-18T17:30:38.077Z,6.67
2023-01-18T17:33:05.915Z,6.93
2023-01-18T17:35:33.627Z,5.87
2023-01-18T17:38:06.892Z,6.40
2023-01-18T17:40:42.768Z,7.47
2023-01-18T17:43:15.234Z,6.57
2023-01-18T17:45:51.026Z,6.70
2023-01-18T17:48:26.247Z,6.17
2023-01-18T17:50:53.977Z,7.17
2023-01-18T17:53:23.107Z,6.60
2023-01-18T17:55:50.911Z,6.20
2023-01-18T17:58:18.670Z,6.57
2023-01-18T18:00:46.663Z,6.43
2023-01-18T18:03:14.520Z,6.57
2023-01-18T18:05:42.308Z,6.87
2023-01-18T18:08:10.055Z,7.67
2023-01-18T18:10:39.096Z,8.80
2023-01-18T18:13:06.885Z,8.50
2023-01-18T18:15:34.604Z,7.73
2023-01-18T18:18:04.022Z,8.27
2023-01-18T18:20:33.221Z,8.03
2023-01-18T18:23:01.405Z,8.77
2023-01-18T18:25:29.527Z,9.97
2023-01-18T18:27:58.652Z,10.37
2023-01-18T18:30:26.357Z,11.17
2023-01-18T18:32:54.155Z,11.23
2023-01-18T18:35:26.267Z,11.87
2023-01-18T18:37:55.456Z,11.73
2023-01-18T18:40:23.707Z,11.73
2023-01-18T18:43:07.386Z,11.10
2023-01-18T18:45:36.820Z,11.20
2023-01-18T18:48:04.718Z,10.63
2023-01-18T18:50:33.049Z,10.70
2023-01-18T18:53:01.284Z,11.07
2023-01-18T18:55:29.173Z,11.67
2023-01-18T18:57:56.960Z,11.87
2023-01-18T19:00:25.505Z,11.00
2023-01-18T19:02:58.716Z,11.83
2023-01-18T19:05:26.522Z,21.13
2023-01-18T19:07:54.281Z,11.67
2023-01-18T19:10:24.150Z,12.07
2023-01-18T19:12:51.891Z,12.07
2023-01-18T19:15:19.681Z,11.80
2023-01-18T19:17:49.985Z,11.87
2023-01-18T19:20:20.444Z,11.37
2023-01-18T19:22:48.487Z,12.27
2023-01-18T19:25:16.986Z,14.00
2023-01-18T19:27:45.140Z,13.07
2023-01-18T19:30:19.015Z,13.13
2023-01-18T19:32:47.958Z,13.23
2023-01-18T19:35:16.371Z,12.57
2023-01-18T19:37:46.194Z,12.67
2023-01-18T19:40:15.207Z,12.80
2023-01-18T19:42:44.416Z,11.70
2023-01-18T19:45:19.705Z,12.37
2023-01-18T19:47:55.422Z,12.27
2023-01-18T19:50:23.188Z,13.17
2023-01-18T19:52:53.124Z,14.57
2023-01-18T19:55:21.540Z,13.73
2023-01-18T19:57:49.495Z,15.23
2023-01-18T20:00:18.116Z,15.47
2023-01-18T20:02:46.111Z,16.60
2023-01-18T20:05:13.982Z,17.37
2023-01-18T20:07:42.248Z,16.63
2023-01-18T20:10:12.491Z,16.67
2023-01-18T20:12:40.433Z,17.03
2023-01-18T20:15:08.750Z,16.77
2023-01-18T20:17:36.629Z,19.47
2023-01-18T20:20:05.034Z,17.10
2023-01-18T20:22:32.783Z,16.40
2023-01-18T20:25:00.534Z,15.00
2023-01-18T20:27:29.692Z,15.10
2023-01-18T20:29:58.315Z,15.83
2023-01-18T20:32:26.291Z,13.77
2023-01-18T20:34:54.190Z,13.90
2023-01-18T20:37:21.958Z,13.53
2023-01-18T20:39:50.807Z,15.43
2023-01-18T20:42:18.775Z,14.60
2023-01-18T20:44:50.306Z,16.00
2023-01-18T20:47:18.164Z,16.30
2023-01-18T20:49:47.013Z,15.00
2023-01-18T20:52:14.942Z,14.97
2023-01-18T20:54:42.671Z,15.60
2023-01-18T20:57:10.540Z,13.27
2023-01-18T20:59:38.338Z,13.00
2023-01-18T21:02:07.917Z,13.07
2023-01-18T21:04:35.865Z,13.50
2023-01-18T21:07:03.662Z,14.10
2023-01-18T21:09:31.419Z,14.30
2023-01-18T21:11:59.577Z,14.40
2023-01-18T21:14:27.385Z,15.40
2023-01-18T21:16:55.245Z,15.00
2023-01-18T21:19:24.506Z,15.70
2023-01-18T21:21:52.413Z,15.73
2023-01-18T21:24:20.283Z,16.87
2023-01-18T21:26:48.176Z,17.50
2023-01-18T21:29:15.957Z,17.73
2023-01-18T21:31:43.775Z,16.53
2023-01-18T21:34:11.700Z,17.37
2023-01-18T21:36:40.994Z,17.03
2023-01-18T21:39:11.486Z,15.37
2023-01-18T21:41:57.136Z,14.47
2023-01-18T21:44:42.459Z,14.23
2023-01-18T21:47:10.251Z,15.20
2023-01-18T21:50:16.618Z,15.77
2023-01-18T21:53:02.660Z,15.00
2023-01-18T21:55:30.513Z,15.90
2023-01-18T21:58:15.938Z,16.57
2023-01-18T22:00:43.680Z,16.60
2023-01-18T22:03:13.239Z,14.70
2023-01-18T22:05:41.458Z,15.60
2023-01-18T22:08:10.893Z,16.50
2023-01-18T22:10:38.715Z,14.73
2023-01-18T22:13:06.762Z,16.00
2023-01-18T22:15:34.542Z,17.03
2023-01-18T22:18:02.633Z,15.77
2023-01-18T22:20:31.623Z,16.10
2023-01-18T22:22:59.486Z,15.80
2023-01-18T22:25:28.572Z,16.00
2023-01-18T22:27:56.328Z,14.33
2023-01-18T22:30:24.385Z,13.80
2023-01-18T22:32:52.111Z,12.97
2023-01-18T22:35:19.823Z,13.27
2023-01-18T22:37:47.602Z,12.80
2023-01-18T22:40:15.677Z,14.27
2023-01-18T22:42:44.850Z,13.50
2023-01-18T22:45:12.751Z,14.00
2023-01-18T22:47:40.526Z,12.17
2023-01-18T22:50:08.903Z,13.27
2023-01-18T22:52:36.721Z,12.03
2023-01-18T22:55:04.654Z,14.27
2023-01-18T22:57:32.360Z,14.50
2023-01-18T23:00:01.464Z,12.27
2023-01-18T23:02:29.243Z,13.73
2023-01-18T23:04:57.065Z,12.37
2023-01-18T23:07:25.140Z,13.33
2023-01-18T23:09:53.099Z,12.20
2023-01-18T23:12:20.937Z,12.97
2023-01-18T23:15:06.810Z,12.80
2023-01-18T23:17:43.079Z,13.17
2023-01-18T23:20:14.750Z,13.43
2023-01-18T23:22:42.602Z,13.37
2023-01-18T23:25:10.814Z,14.07
2023-01-18T23:27:38.657Z,13.20
2023-01-18T23:30:07.482Z,14.10
2023-01-18T23:32:37.431Z,14.10
2023-01-18T23:35:06.810Z,15.27
2023-01-18T23:37:34.751Z,13.83
2023-01-18T23:40:20.250Z,13.70
2023-01-18T23:43:05.505Z,12.77
2023-01-18T23:45:51.698Z,13.00
2023-01-18T23:48:39.034Z,13.53
2023-01-18T23:51:27.120Z,12.10
2023-01-18T23:54:14.642Z,12.57
2023-01-18T23:56:42.658Z,12.47
2023-01-18T23:59:10.695Z,13.30
